createdAt,value
2019-04-28T00:00:44.460Z,25.62
2019-04-28T00:03:11.541Z,17.70
2019-04-28T00:05:38.616Z,17.48
2019-04-28T00:08:05.682Z,23.62
2019-04-28T00:10:32.741Z,22.98
2019-04-28T00:13:01.007Z,30.57
2019-04-28T00:15:28.187Z,41.60
2019-04-28T00:17:55.293Z,47.70
2019-04-28T00:20:40.900Z,39.70
2019-04-28T00:23:19.472Z,38.38
2019-04-28T00:26:03.458Z,43.25
2019-04-28T00:28:31.163Z,33.87
2019-04-28T00:30:59.332Z,34.43
2019-04-28T00:33:26.359Z,34.60
2019-04-28T00:35:53.877Z,37.33
2019-04-28T00:38:21.600Z,35.63
2019-04-28T00:40:52.757Z,36.68
2019-04-28T00:43:21.841Z,34.55
2019-04-28T00:45:48.982Z,33.92
2019-04-28T00:48:16.009Z,28.42
2019-04-28T00:50:43.784Z,28.32
2019-04-28T00:53:11.650Z,18.42
2019-04-28T00:55:38.869Z,37.15
2019-04-28T00:58:05.895Z,30.02
2019-04-28T01:00:37.771Z,45.67
2019-04-28T01:03:04.757Z,35.38
2019-04-28T01:05:31.783Z,53.60
2019-04-28T01:08:01.097Z,42.75
2019-04-28T01:10:30.901Z,37.28
2019-04-28T01:12:58.198Z,21.27
2019-04-28T01:15:33.313Z,59.42
2019-04-28T01:18:02.153Z,41.53
2019-04-28T01:20:29.688Z,47.05
2019-04-28T01:22:56.965Z,22.10
2019-04-28T01:25:24.104Z,44.83
2019-04-28T01:27:52.895Z,48.58
2019-04-28T01:30:26.478Z,42.50
2019-04-28T01:32:56.269Z,26.83
2019-04-28T01:35:25.795Z,51.45
2019-04-28T01:37:53.040Z,45.75
2019-04-28T01:40:20.643Z,42.98
2019-04-28T01:42:49.458Z,39.67
2019-04-28T01:45:16.620Z,55.05
2019-04-28T01:47:43.689Z,47.58
2019-04-28T01:50:11.079Z,53.75
2019-04-28T01:52:39.921Z,47.78
2019-04-28T01:55:09.975Z,53.60
2019-04-28T01:57:37.183Z,45.25
2019-04-28T02:00:20.045Z,52.27
2019-04-28T02:02:38.464Z,37.58
2019-04-28T02:05:05.829Z,35.98
2019-04-28T02:07:34.716Z,38.60
2019-04-28T02:10:01.736Z,50.10
2019-04-28T02:12:30.783Z,37.93
2019-04-28T02:14:57.751Z,44.10
2019-04-28T02:17:24.813Z,46.68
2019-04-28T02:19:52.703Z,36.40
2019-04-28T02:22:21.650Z,25.72
2019-04-28T02:24:50.388Z,34.25
2019-04-28T02:27:17.684Z,30.50
2019-04-28T02:29:44.696Z,45.05
2019-04-28T02:32:12.680Z,37.93
2019-04-28T02:34:41.099Z,41.80
2019-04-28T02:37:11.292Z,31.23
2019-04-28T02:39:40.950Z,23.27
2019-04-28T02:42:10.679Z,27.02
2019-04-28T02:44:37.384Z,39.35
2019-04-28T02:47:04.538Z,56.20
2019-04-28T02:49:33.493Z,23.40
2019-04-28T02:52:03.143Z,62.05
2019-04-28T02:54:30.609Z,51.15
2019-04-28T02:57:01.302Z,43.52
2019-04-28T02:59:27.520Z,54.27
2019-04-28T03:01:55.160Z,77.70
2019-04-28T03:04:24.499Z,55.83
2019-04-28T03:06:51.959Z,33.83
2019-04-28T03:09:20.270Z,51.63
2019-04-28T03:11:47.379Z,61.25
2019-04-28T03:14:14.506Z,47.78
2019-04-28T03:16:41.497Z,35.25
2019-04-28T03:19:10.854Z,61.90
2019-04-28T03:21:37.444Z,53.50
2019-04-28T03:24:05.839Z,50.67
2019-04-28T03:26:34.629Z,61.85
2019-04-28T03:29:10.817Z,53.68
2019-04-28T03:32:07.924Z,53.17
2019-04-28T03:34:12.912Z,65.52
2019-04-28T03:36:40.794Z,41.35
2019-04-28T03:39:10.844Z,66.60
2019-04-28T03:41:36.453Z,33.28
2019-04-28T03:44:03.693Z,62.15
2019-04-28T03:46:41.311Z,47.40
2019-04-28T03:49:10.866Z,29.10
2019-04-28T03:51:40.603Z,30.60
2019-04-28T03:54:06.873Z,58.42
2019-04-28T03:56:33.850Z,46.05
2019-04-28T03:59:01.074Z,44.20
2019-04-28T04:01:30.570Z,32.17
2019-04-28T04:03:57.791Z,43.20
2019-04-28T04:06:24.778Z,48.33
2019-04-28T04:08:51.836Z,61.68
2019-04-28T04:11:23.941Z,62.98
2019-04-28T04:13:53.651Z,73.47
2019-04-28T04:16:34.686Z,30.65
2019-04-28T04:19:04.339Z,64.72
2019-04-28T04:21:31.386Z,37.03
2019-04-28T04:24:00.846Z,46.68
2019-04-28T04:26:27.309Z,51.65
2019-04-28T04:28:55.595Z,52.62
2019-04-28T04:31:22.698Z,45.10
2019-04-28T04:33:50.577Z,43.58
2019-04-28T04:36:17.845Z,52.80
2019-04-28T04:38:46.407Z,52.60
2019-04-28T04:41:14.008Z,28.98
2019-04-28T04:43:41.727Z,23.05
2019-04-28T04:46:22.108Z,52.80
2019-04-28T04:48:50.743Z,47.53
2019-04-28T04:51:17.678Z,53.90
2019-04-28T04:53:55.518Z,39.35
2019-04-28T04:56:23.471Z,46.05
2019-04-28T04:58:50.827Z,37.08
2019-04-28T05:01:30.293Z,23.55
2019-04-28T05:03:59.743Z,54.20
2019-04-28T05:06:37.573Z,60.05
2019-04-28T05:09:10.290Z,41.10
2019-04-28T05:11:39.809Z,61.58
2019-04-28T05:14:07.599Z,49.13
2019-04-28T05:16:34.899Z,54.77
2019-04-28T05:19:02.151Z,43.63
2019-04-28T05:21:33.144Z,55.48
2019-04-28T05:24:17.476Z,50.45
2019-04-28T05:26:47.561Z,54.45
2019-04-28T05:29:21.735Z,52.98
2019-04-28T05:31:44.480Z,41.73
2019-04-28T05:34:12.439Z,48.35
2019-04-28T05:36:43.957Z,61.65
2019-04-28T05:39:08.286Z,32.55
2019-04-28T05:41:37.735Z,22.93
2019-04-28T05:44:07.239Z,36.05
2019-04-28T05:46:34.433Z,24.12
2019-04-28T05:49:06.384Z,33.90
2019-04-28T05:51:35.198Z,31.07
2019-04-28T05:54:21.086Z,52.83
2019-04-28T05:57:06.779Z,31.48
2019-04-28T05:59:41.568Z,36.75
2019-04-28T06:02:12.186Z,41.23
2019-04-28T06:04:40.494Z,44.67
2019-04-28T06:07:12.237Z,47.98
2019-04-28T06:09:41.092Z,59.63
2019-04-28T06:12:10.347Z,75.65
2019-04-28T06:14:37.436Z,56.30
2019-04-28T06:17:04.501Z,55.52
2019-04-28T06:19:31.554Z,70.52
2019-04-28T06:21:58.613Z,63.52
2019-04-28T06:24:25.702Z,64.85
2019-04-28T06:26:52.720Z,78.40
2019-04-28T06:29:19.807Z,57.00
2019-04-28T06:31:46.885Z,34.67
2019-04-28T06:34:13.985Z,28.65
2019-04-28T06:36:41.077Z,27.95
2019-04-28T06:39:08.531Z,25.17
2019-04-28T06:41:35.592Z,26.77
2019-04-28T06:44:02.779Z,28.73
2019-04-28T06:46:29.891Z,16.55
2019-04-28T06:48:56.943Z,34.75
2019-04-28T06:51:23.982Z,21.93
2019-04-28T06:53:50.954Z,18.48
2019-04-28T06:56:17.973Z,21.57
2019-04-28T06:58:45.042Z,25.60
2019-04-28T07:01:12.048Z,20.27
2019-04-28T07:03:39.168Z,16.10
2019-04-28T07:06:06.175Z,23.25
2019-04-28T07:08:33.269Z,16.25
2019-04-28T07:11:00.263Z,21.25
2019-04-28T07:13:27.313Z,24.65
2019-04-28T07:15:54.273Z,18.67
2019-04-28T07:18:21.703Z,19.40
2019-04-28T07:20:57.453Z,16.40
2019-04-28T07:23:27.904Z,12.60
2019-04-28T07:25:54.944Z,9.63
2019-04-28T07:28:21.954Z,16.77
2019-04-28T07:30:48.974Z,12.82
2019-04-28T07:33:15.965Z,19.62
2019-04-28T07:35:43.093Z,15.40
2019-04-28T07:38:10.108Z,15.60
2019-04-28T07:40:39.391Z,12.07
2019-04-28T07:43:06.666Z,15.53
2019-04-28T07:45:33.796Z,18.05
2019-04-28T07:48:00.791Z,13.50
2019-04-28T07:50:29.167Z,22.30
2019-04-28T07:53:03.965Z,14.98
2019-04-28T07:55:31.108Z,18.82
2019-04-28T07:57:58.232Z,12.78
2019-04-28T08:00:27.191Z,11.95
2019-04-28T08:02:54.272Z,13.28
2019-04-28T08:05:21.257Z,15.93
2019-04-28T08:07:48.299Z,10.85
2019-04-28T08:10:15.349Z,16.37
2019-04-28T08:12:42.572Z,15.23
2019-04-28T08:15:09.603Z,9.45
2019-04-28T08:17:36.584Z,12.65
2019-04-28T08:20:05.745Z,12.63
2019-04-28T08:22:32.863Z,11.57
2019-04-28T08:24:59.867Z,9.23
2019-04-28T08:27:26.876Z,7.75
2019-04-28T08:29:58.705Z,8.73
2019-04-28T08:32:28.381Z,8.38
2019-04-28T08:34:56.524Z,9.10
2019-04-28T08:37:23.660Z,8.55
2019-04-28T08:39:50.701Z,8.28
2019-04-28T08:42:17.765Z,6.90
2019-04-28T08:44:47.168Z,6.20
2019-04-28T08:47:14.328Z,7.72
2019-04-28T08:49:41.460Z,8.95
2019-04-28T08:52:08.586Z,8.20
2019-04-28T08:54:35.707Z,5.95
2019-04-28T08:57:02.976Z,6.75
2019-04-28T08:59:30.037Z,7.25
2019-04-28T09:01:57.094Z,6.55
2019-04-28T09:04:24.075Z,6.62
2019-04-28T09:06:51.092Z,8.58
2019-04-28T09:09:20.036Z,7.47
2019-04-28T09:11:47.164Z,8.93
2019-04-28T09:14:14.392Z,12.65
2019-04-28T09:16:41.575Z,8.85
2019-04-28T09:19:09.040Z,7.42
2019-04-28T09:21:36.109Z,10.50
2019-04-28T09:24:05.628Z,8.13
2019-04-28T09:26:32.797Z,7.47
2019-04-28T09:28:59.892Z,10.00
2019-04-28T09:31:27.897Z,4.83
2019-04-28T09:33:55.038Z,5.67
2019-04-28T09:36:22.175Z,4.60
2019-04-28T09:38:49.553Z,8.33
2019-04-28T09:41:16.733Z,6.95
2019-04-28T09:44:00.559Z,5.37
2019-04-28T09:46:29.555Z,7.62
2019-04-28T09:48:56.597Z,5.30
2019-04-28T09:51:23.676Z,7.00
2019-04-28T09:53:50.703Z,7.35
2019-04-28T09:56:17.781Z,7.67
2019-04-28T09:58:44.810Z,9.28
2019-04-28T10:01:11.883Z,5.55
2019-04-28T10:03:38.916Z,7.22
2019-04-28T10:06:06.022Z,7.35
2019-04-28T10:08:33.027Z,3.77
2019-04-28T10:11:00.101Z,4.70
2019-04-28T10:13:27.082Z,4.53
2019-04-28T10:16:00.382Z,4.20
2019-04-28T10:18:27.342Z,5.65
2019-04-28T10:20:55.528Z,4.03
2019-04-28T10:23:22.524Z,4.70
2019-04-28T10:25:50.550Z,3.17
2019-04-28T10:28:17.572Z,3.60
2019-04-28T10:30:44.759Z,3.33
2019-04-28T10:33:11.785Z,2.85
2019-04-28T10:35:38.854Z,3.12
2019-04-28T10:38:05.890Z,4.05
2019-04-28T10:40:36.869Z,3.40
2019-04-28T10:43:04.060Z,6.83
2019-04-28T10:45:32.928Z,4.42
2019-04-28T10:48:00.014Z,5.53
2019-04-28T10:50:27.008Z,4.80
2019-04-28T10:52:54.033Z,4.42
2019-04-28T10:55:21.050Z,4.65
2019-04-28T10:57:48.091Z,3.15
2019-04-28T11:00:17.163Z,4.92
2019-04-28T11:02:44.322Z,6.80
2019-04-28T11:05:16.283Z,5.42
2019-04-28T11:07:43.408Z,3.67
2019-04-28T11:10:15.694Z,7.05
2019-04-28T11:12:42.769Z,3.65
2019-04-28T11:15:14.432Z,7.87
2019-04-28T11:17:41.459Z,4.67
2019-04-28T11:20:09.884Z,4.33
2019-04-28T11:22:36.957Z,4.22
2019-04-28T11:25:05.801Z,10.15
2019-04-28T11:27:32.981Z,4.53
2019-04-28T11:30:01.239Z,4.50
2019-04-28T11:32:30.600Z,7.17
2019-04-28T11:35:02.371Z,5.65
2019-04-28T11:37:30.639Z,4.45
2019-04-28T11:39:58.500Z,4.72
2019-04-28T11:42:25.942Z,5.85
2019-04-28T11:44:55.859Z,6.30
2019-04-28T11:47:23.783Z,4.80
2019-04-28T11:49:52.126Z,10.08
2019-04-28T11:52:19.591Z,5.17
2019-04-28T11:54:46.699Z,8.30
2019-04-28T11:57:13.801Z,4.92
2019-04-28T11:59:40.800Z,5.17
2019-04-28T12:02:07.845Z,6.58
2019-04-28T12:04:34.836Z,7.00
2019-04-28T12:07:01.863Z,5.55
2019-04-28T12:09:47.352Z,6.90
2019-04-28T12:12:31.372Z,7.25
2019-04-28T12:15:00.203Z,6.75
2019-04-28T12:17:45.703Z,5.72
2019-04-28T12:20:17.869Z,7.47
2019-04-28T12:22:45.937Z,6.30
2019-04-28T12:25:14.856Z,7.55
2019-04-28T12:27:41.996Z,5.45
2019-04-28T12:30:09.112Z,4.80
2019-04-28T12:32:36.288Z,6.17
2019-04-28T12:35:04.717Z,9.15
2019-04-28T12:37:31.812Z,9.38
2019-04-28T12:39:58.838Z,5.12
2019-04-28T12:42:26.132Z,10.03
2019-04-28T12:44:53.226Z,7.42
2019-04-28T12:47:20.375Z,6.78
2019-04-28T12:49:52.029Z,10.93
2019-04-28T12:52:19.039Z,11.03
2019-04-28T12:54:46.096Z,11.80
2019-04-28T12:57:13.123Z,10.38
2019-04-28T12:59:41.939Z,8.48
2019-04-28T13:02:19.822Z,11.65
2019-04-28T13:04:51.752Z,15.15
2019-04-28T13:07:18.763Z,14.47
2019-04-28T13:09:45.889Z,8.10
2019-04-28T13:12:12.988Z,11.95
2019-04-28T13:14:40.074Z,17.50
2019-04-28T13:17:07.227Z,15.28
2019-04-28T13:19:34.313Z,12.20
2019-04-28T13:22:01.335Z,14.20
2019-04-28T13:24:28.485Z,17.87
2019-04-28T13:26:55.487Z,16.35
2019-04-28T13:29:22.728Z,13.03
2019-04-28T13:31:49.747Z,18.35
2019-04-28T13:34:18.649Z,17.05
2019-04-28T13:36:45.686Z,13.40
2019-04-28T13:39:14.486Z,15.60
2019-04-28T13:41:41.487Z,8.70
2019-04-28T13:44:10.344Z,12.58
2019-04-28T13:46:37.322Z,13.05
2019-04-28T13:49:06.223Z,12.43
2019-04-28T13:51:33.305Z,10.28
2019-04-28T13:54:02.176Z,9.73
2019-04-28T13:56:30.319Z,7.80
2019-04-28T13:58:59.255Z,14.00
2019-04-28T14:01:33.971Z,9.23
2019-04-28T14:04:12.215Z,12.53
2019-04-28T14:06:40.988Z,12.75
2019-04-28T14:09:10.162Z,16.45
2019-04-28T14:11:39.040Z,11.80
2019-04-28T14:14:07.137Z,12.23
2019-04-28T14:16:34.147Z,13.58
2019-04-28T14:19:01.192Z,11.90
2019-04-28T14:21:28.157Z,15.08
2019-04-28T14:23:55.231Z,14.70
2019-04-28T14:26:22.271Z,15.38
2019-04-28T14:28:49.616Z,12.28
2019-04-28T14:31:16.798Z,12.65
2019-04-28T14:33:43.844Z,9.63
2019-04-28T14:36:10.872Z,19.10
2019-04-28T14:38:37.998Z,13.10
2019-04-28T14:41:05.072Z,13.35
2019-04-28T14:43:32.448Z,16.40
2019-04-28T14:45:59.713Z,13.88
2019-04-28T14:48:26.930Z,12.63
2019-04-28T14:50:54.108Z,12.53
2019-04-28T14:53:21.176Z,11.30
2019-04-28T14:55:49.319Z,13.35
2019-04-28T14:58:16.410Z,12.98
2019-04-28T15:00:45.341Z,12.15
2019-04-28T15:03:16.515Z,12.07
2019-04-28T15:05:57.793Z,9.10
2019-04-28T15:08:29.430Z,15.18
2019-04-28T15:11:02.141Z,10.48
2019-04-28T15:13:29.223Z,9.98
2019-04-28T15:15:56.247Z,11.30
2019-04-28T15:18:23.261Z,14.25
2019-04-28T15:20:50.446Z,8.15
2019-04-28T15:23:18.778Z,8.60
2019-04-28T15:25:46.011Z,10.95
2019-04-28T15:28:13.017Z,7.70
2019-04-28T15:30:40.131Z,9.05
2019-04-28T15:33:07.141Z,13.43
2019-04-28T15:35:34.202Z,10.75
2019-04-28T15:38:01.261Z,7.33
2019-04-28T15:40:30.226Z,10.85
2019-04-28T15:42:57.333Z,11.83
2019-04-28T15:45:24.821Z,8.98
2019-04-28T15:47:52.499Z,15.55
2019-04-28T15:50:19.672Z,9.23
2019-04-28T15:52:47.213Z,8.73
2019-04-28T15:55:19.033Z,10.13
2019-04-28T15:57:46.086Z,10.43
2019-04-28T16:00:14.339Z,9.75
2019-04-28T16:02:41.349Z,13.48
2019-04-28T16:05:08.851Z,9.85
2019-04-28T16:07:35.870Z,12.85
2019-04-28T16:10:05.920Z,8.90
2019-04-28T16:12:33.028Z,9.13
2019-04-28T16:15:00.061Z,7.58
2019-04-28T16:17:27.259Z,8.75
2019-04-28T16:19:54.276Z,9.80
2019-04-28T16:22:21.983Z,8.05
2019-04-28T16:24:49.027Z,8.30
2019-04-28T16:27:16.291Z,6.00
2019-04-28T16:29:43.310Z,6.45
2019-04-28T16:32:13.755Z,5.58
2019-04-28T16:34:40.721Z,6.85
2019-04-28T16:37:07.750Z,12.07
2019-04-28T16:39:34.825Z,5.83
2019-04-28T16:42:02.860Z,8.10
2019-04-28T16:44:32.588Z,9.23
2019-04-28T16:46:59.730Z,8.30
2019-04-28T16:49:26.807Z,11.95
2019-04-28T16:51:53.933Z,9.15
2019-04-28T16:54:21.303Z,13.25
2019-04-28T16:56:59.385Z,10.43
2019-04-28T16:59:44.987Z,13.72
2019-04-28T17:02:25.692Z,16.00
2019-04-28T17:04:53.048Z,13.78
2019-04-28T17:07:20.426Z,11.25
2019-04-28T17:09:47.568Z,14.85
2019-04-28T17:12:14.948Z,13.65
2019-04-28T17:14:42.143Z,9.10
2019-04-28T17:17:09.278Z,15.28
2019-04-28T17:19:36.839Z,12.90
2019-04-28T17:22:04.089Z,16.50
2019-04-28T17:24:31.267Z,14.93
2019-04-28T17:26:58.438Z,10.58
2019-04-28T17:29:25.436Z,15.80
2019-04-28T17:31:52.831Z,15.95
2019-04-28T17:34:19.808Z,8.10
2019-04-28T17:36:47.513Z,11.50
2019-04-28T17:39:17.324Z,17.60
2019-04-28T17:41:44.347Z,12.07
2019-04-28T17:44:11.884Z,17.42
2019-04-28T17:46:38.979Z,16.10
2019-04-28T17:49:05.991Z,21.02
2019-04-28T17:51:33.014Z,21.27
2019-04-28T17:54:01.849Z,22.67
2019-04-28T17:56:28.997Z,14.18
2019-04-28T17:59:00.381Z,17.95
2019-04-28T18:01:32.454Z,25.10
2019-04-28T18:04:14.522Z,22.62
2019-04-28T18:06:47.323Z,24.52
2019-04-28T18:09:14.454Z,20.68
2019-04-28T18:11:42.145Z,20.35
2019-04-28T18:14:09.553Z,18.07
2019-04-28T18:16:47.635Z,20.05
2019-04-28T18:19:16.395Z,22.13
2019-04-28T18:21:45.470Z,25.50
2019-04-28T18:24:15.844Z,21.95
2019-04-28T18:26:43.200Z,22.07
2019-04-28T18:29:10.489Z,18.62
2019-04-28T18:31:39.824Z,22.55
2019-04-28T18:34:25.057Z,17.60
2019-04-28T18:37:10.718Z,23.95
2019-04-28T18:39:58.118Z,23.85
2019-04-28T18:42:27.103Z,28.95
2019-04-28T18:44:54.432Z,33.55
2019-04-28T18:47:22.725Z,29.67
2019-04-28T18:49:49.956Z,16.95
2019-04-28T18:52:17.170Z,22.40
2019-04-28T18:54:44.188Z,31.05
2019-04-28T18:57:11.315Z,28.02
2019-04-28T18:59:38.288Z,23.07
2019-04-28T19:02:07.244Z,25.32
2019-04-28T19:04:34.286Z,27.95
2019-04-28T19:07:05.167Z,32.03
2019-04-28T19:09:52.627Z,20.25
2019-04-28T19:12:21.631Z,26.02
2019-04-28T19:14:53.237Z,20.72
2019-04-28T19:17:34.323Z,28.30
2019-04-28T19:20:01.443Z,27.50
2019-04-28T19:22:28.709Z,28.47
2019-04-28T19:24:58.889Z,21.37
2019-04-28T19:27:26.012Z,25.95
2019-04-28T19:29:53.320Z,22.27
2019-04-28T19:32:20.423Z,29.75
2019-04-28T19:34:47.411Z,27.42
2019-04-28T19:37:14.515Z,21.68
2019-04-28T19:39:41.914Z,20.72
2019-04-28T19:42:08.901Z,22.55
2019-04-28T19:44:38.026Z,22.52
2019-04-28T19:47:05.143Z,19.73
2019-04-28T19:49:32.400Z,24.67
2019-04-28T19:52:01.108Z,21.93
2019-04-28T19:54:31.115Z,22.15
2019-04-28T19:57:00.107Z,23.12
2019-04-28T19:59:31.503Z,25.10
2019-04-28T20:02:02.140Z,24.10
2019-04-28T20:04:29.827Z,27.20
2019-04-28T20:06:58.213Z,24.85
2019-04-28T20:09:25.581Z,22.02
2019-04-28T20:11:53.195Z,22.93
2019-04-28T20:14:21.149Z,10.05
2019-04-28T20:16:49.547Z,22.52
2019-04-28T20:19:16.770Z,25.70
2019-04-28T20:21:43.978Z,25.90
2019-04-28T20:24:11.142Z,22.10
2019-04-28T20:26:40.234Z,22.48
2019-04-28T20:29:07.415Z,21.60
2019-04-28T20:31:37.355Z,15.80
2019-04-28T20:34:05.773Z,22.05
2019-04-28T20:36:43.803Z,20.25
2019-04-28T20:39:16.861Z,23.30
2019-04-28T20:41:45.263Z,11.68
2019-04-28T20:44:13.570Z,14.20
2019-04-28T20:46:40.665Z,15.75
2019-04-28T20:49:07.709Z,13.80
2019-04-28T20:51:34.784Z,15.68
2019-04-28T20:54:01.777Z,20.48
2019-04-28T20:56:29.951Z,18.70
2019-04-28T20:58:57.021Z,19.25
2019-04-28T21:01:24.192Z,16.80
2019-04-28T21:03:51.368Z,21.97
2019-04-28T21:06:18.479Z,18.87
2019-04-28T21:08:45.498Z,19.45
2019-04-28T21:11:12.569Z,25.68
2019-04-28T21:13:39.646Z,21.73
2019-04-28T21:16:06.761Z,18.05
2019-04-28T21:18:33.930Z,13.28
2019-04-28T21:21:01.239Z,18.12
2019-04-28T21:23:28.933Z,16.97
2019-04-28T21:25:58.380Z,14.87
2019-04-28T21:28:25.531Z,16.82
2019-04-28T21:30:52.765Z,19.45
2019-04-28T21:33:19.863Z,22.90
2019-04-28T21:35:46.908Z,17.45
2019-04-28T21:38:13.990Z,19.60
2019-04-28T21:40:42.239Z,16.93
2019-04-28T21:43:11.056Z,15.32
2019-04-28T21:45:42.726Z,20.23
2019-04-28T21:48:10.662Z,12.45
2019-04-28T21:50:37.830Z,20.37
2019-04-28T21:53:05.004Z,18.32
2019-04-28T21:55:32.096Z,20.50
2019-04-28T21:57:59.374Z,19.92
2019-04-28T22:00:34.682Z,18.52
2019-04-28T22:03:20.070Z,11.70
2019-04-28T22:05:47.089Z,11.10
2019-04-28T22:08:14.143Z,17.25
2019-04-28T22:10:41.165Z,17.62
2019-04-28T22:13:08.254Z,10.93
2019-04-28T22:15:35.242Z,17.32
2019-04-28T22:18:02.298Z,15.80
2019-04-28T22:20:29.333Z,15.75
2019-04-28T22:22:58.183Z,15.60
2019-04-28T22:25:25.612Z,14.75
2019-04-28T22:27:52.732Z,15.93
2019-04-28T22:30:19.781Z,24.23
2019-04-28T22:32:48.692Z,15.48
2019-04-28T22:35:15.662Z,12.37
2019-04-28T22:37:42.735Z,17.90
2019-04-28T22:40:09.960Z,9.75
2019-04-28T22:42:37.866Z,14.25
2019-04-28T22:45:06.695Z,26.87
2019-04-28T22:47:33.764Z,27.27
2019-04-28T22:50:00.770Z,19.07
2019-04-28T22:52:27.919Z,21.07
2019-04-28T22:54:56.718Z,22.45
2019-04-28T22:57:41.901Z,30.75
2019-04-28T23:00:20.192Z,29.32
2019-04-28T23:02:49.048Z,15.75
2019-04-28T23:05:16.231Z,19.17
2019-04-28T23:07:43.327Z,32.38
2019-04-28T23:10:11.983Z,19.10
2019-04-28T23:12:39.009Z,28.07
2019-04-28T23:15:07.714Z,24.32
2019-04-28T23:17:35.127Z,19.75
2019-04-28T23:20:04.627Z,21.90
2019-04-28T23:22:46.032Z,22.55
2019-04-28T23:25:03.394Z,25.70
2019-04-28T23:27:32.233Z,15.68
2019-04-28T23:29:59.292Z,20.52
2019-04-28T23:32:27.141Z,19.73
2019-04-28T23:34:54.268Z,26.02
2019-04-28T23:37:21.303Z,15.63
2019-04-28T23:39:48.448Z,13.90
2019-04-28T23:42:24.585Z,10.65
2019-04-28T23:44:52.548Z,9.93
2019-04-28T23:47:19.663Z,17.37
2019-04-28T23:49:47.186Z,14.03
2019-04-28T23:52:33.920Z,15.95
2019-04-28T23:55:02.844Z,12.78
2019-04-28T23:57:29.950Z,17.05
2019-04-28T23:59:57.185Z,12.30
